sensor_id;sensor_type;location;lat;lon;timestamp;pressure;altitude;pressure_sealevel;temperature;humidity
4767;BME280;2397;53.576;9.746;2023-05-09T00:00:23;102000.16;;;13.69;44.46
4767;BME280;2397;53.576;9.746;2023-05-09T00:02:50;102001.84;;;13.80;44.63
4767;BME280;2397;53.576;9.746;2023-05-09T00:05:17;101997.22;;;13.82;44.31
4767;BME280;2397;53.576;9.746;2023-05-09T00:07:43;101999.06;;;13.82;44.42
4767;BME280;2397;53.576;9.746;2023-05-09T00:10:10;101993.88;;;13.90;43.61
4767;BME280;2397;53.576;9.746;2023-05-09T00:12:37;101995.41;;;13.83;44.47
4767;BME280;2397;53.576;9.746;2023-05-09T00:15:04;101992.06;;;13.81;44.63
4767;BME280;2397;53.576;9.746;2023-05-09T00:17:34;101989.00;;;13.76;45.49
4767;BME280;2397;53.576;9.746;2023-05-09T00:20:01;101988.00;;;13.77;44.77
4767;BME280;2397;53.576;9.746;2023-05-09T00:22:30;101982.44;;;13.70;44.59
4767;BME280;2397;53.576;9.746;2023-05-09T00:24:57;101980.06;;;13.67;45.22
4767;BME280;2397;53.576;9.746;2023-05-09T00:27:23;101975.59;;;13.68;45.15
4767;BME280;2397;53.576;9.746;2023-05-09T00:29:50;101974.63;;;13.59;45.33
4767;BME280;2397;53.576;9.746;2023-05-09T00:32:16;101969.72;;;13.54;45.28
4767;BME280;2397;53.576;9.746;2023-05-09T00:34:43;101976.44;;;13.58;44.97
4767;BME280;2397;53.576;9.746;2023-05-09T00:37:10;101972.81;;;13.59;45.05
4767;BME280;2397;53.576;9.746;2023-05-09T00:39:36;101970.59;;;13.55;45.39
4767;BME280;2397;53.576;9.746;2023-05-09T00:42:03;101962.63;;;13.45;45.77
4767;BME280;2397;53.576;9.746;2023-05-09T00:44:30;101954.81;;;13.44;45.11
4767;BME280;2397;53.576;9.746;2023-05-09T00:46:57;101942.69;;;13.41;45.01
4767;BME280;2397;53.576;9.746;2023-05-09T00:49:23;101944.19;;;13.44;45.41
4767;BME280;2397;53.576;9.746;2023-05-09T00:51:50;101941.97;;;13.39;45.12
4767;BME280;2397;53.576;9.746;2023-05-09T00:54:17;101938.19;;;13.32;46.29
4767;BME280;2397;53.576;9.746;2023-05-09T00:56:43;101934.28;;;13.27;46.12
4767;BME280;2397;53.576;9.746;2023-05-09T00:59:10;101925.34;;;13.28;45.33
4767;BME280;2397;53.576;9.746;2023-05-09T01:01:37;101915.59;;;13.28;44.89
4767;BME280;2397;53.576;9.746;2023-05-09T01:04:04;101922.88;;;13.26;46.07
4767;BME280;2397;53.576;9.746;2023-05-09T01:09:39;101913.94;;;13.18;46.68
4767;BME280;2397;53.576;9.746;2023-05-09T01:15:06;101902.88;;;13.13;46.44
4767;BME280;2397;53.576;9.746;2023-05-09T01:20:31;101906.66;;;13.01;46.75
4767;BME280;2397;53.576;9.746;2023-05-09T01:26:00;101907.63;;;13.00;47.21
4767;BME280;2397;53.576;9.746;2023-05-09T01:31:29;101910.09;;;12.92;47.42
4767;BME280;2397;53.576;9.746;2023-05-09T01:34:01;101903.28;;;12.89;47.68
4767;BME280;2397;53.576;9.746;2023-05-09T01:36:29;101901.88;;;12.95;47.54
4767;BME280;2397;53.576;9.746;2023-05-09T01:38:58;101896.28;;;12.88;47.52
4767;BME280;2397;53.576;9.746;2023-05-09T01:41:27;101893.91;;;12.85;47.84
4767;BME280;2397;53.576;9.746;2023-05-09T01:43:58;101900.44;;;12.72;48.32
4767;BME280;2397;53.576;9.746;2023-05-09T01:46:27;101893.75;;;12.68;48.63
4767;BME280;2397;53.576;9.746;2023-05-09T01:48:55;101900.16;;;12.75;48.19
4767;BME280;2397;53.576;9.746;2023-05-09T01:51:24;101894.88;;;12.75;48.64
4767;BME280;2397;53.576;9.746;2023-05-09T01:53:53;101898.50;;;12.74;47.96
4767;BME280;2397;53.576;9.746;2023-05-09T01:56:23;101886.66;;;12.68;48.52
4767;BME280;2397;53.576;9.746;2023-05-09T01:58:51;101891.78;;;12.60;48.50
4767;BME280;2397;53.576;9.746;2023-05-09T02:01:19;101889.00;;;12.62;48.97
4767;BME280;2397;53.576;9.746;2023-05-09T02:03:49;101894.72;;;12.57;48.88
4767;BME280;2397;53.576;9.746;2023-05-09T02:06:19;101896.22;;;12.50;49.27
4767;BME280;2397;53.576;9.746;2023-05-09T02:08:48;101905.69;;;12.53;49.20
4767;BME280;2397;53.576;9.746;2023-05-09T02:11:14;101892.31;;;12.45;49.06
4767;BME280;2397;53.576;9.746;2023-05-09T02:13:41;101887.69;;;12.47;49.41
4767;BME280;2397;53.576;9.746;2023-05-09T02:16:08;101891.44;;;12.35;49.71
4767;BME280;2397;53.576;9.746;2023-05-09T02:18:35;101884.59;;;12.32;50.08
4767;BME280;2397;53.576;9.746;2023-05-09T02:21:02;101896.84;;;12.33;49.32
4767;BME280;2397;53.576;9.746;2023-05-09T02:23:29;101899.50;;;12.33;50.45
4767;BME280;2397;53.576;9.746;2023-05-09T02:25:56;101888.63;;;12.27;50.50
4767;BME280;2397;53.576;9.746;2023-05-09T02:28:24;101887.06;;;12.24;50.17
4767;BME280;2397;53.576;9.746;2023-05-09T02:30:54;101890.56;;;12.25;51.56
4767;BME280;2397;53.576;9.746;2023-05-09T02:33:22;101894.75;;;12.27;51.14
4767;BME280;2397;53.576;9.746;2023-05-09T02:35:49;101886.09;;;12.25;51.16
4767;BME280;2397;53.576;9.746;2023-05-09T02:38:16;101885.97;;;12.27;50.47
4767;BME280;2397;53.576;9.746;2023-05-09T02:40:46;101885.09;;;12.17;50.62
4767;BME280;2397;53.576;9.746;2023-05-09T02:43:12;101880.91;;;12.14;51.29
4767;BME280;2397;53.576;9.746;2023-05-09T02:45:40;101886.06;;;12.16;51.03
4767;BME280;2397;53.576;9.746;2023-05-09T02:48:07;101884.91;;;12.09;51.30
4767;BME280;2397;53.576;9.746;2023-05-09T02:50:35;101883.25;;;12.08;50.98
4767;BME280;2397;53.576;9.746;2023-05-09T02:53:04;101889.59;;;11.96;51.94
4767;BME280;2397;53.576;9.746;2023-05-09T02:55:31;101882.38;;;11.98;51.38
4767;BME280;2397;53.576;9.746;2023-05-09T02:57:58;101878.81;;;11.88;51.75
4767;BME280;2397;53.576;9.746;2023-05-09T03:00:38;101881.28;;;11.80;52.65
4767;BME280;2397;53.576;9.746;2023-05-09T03:03:06;101862.66;;;11.81;52.46
4767;BME280;2397;53.576;9.746;2023-05-09T03:05:33;101867.50;;;11.76;52.65
4767;BME280;2397;53.576;9.746;2023-05-09T03:07:59;101856.78;;;11.78;52.74
4767;BME280;2397;53.576;9.746;2023-05-09T03:10:25;101856.66;;;11.79;52.62
4767;BME280;2397;53.576;9.746;2023-05-09T03:12:52;101857.84;;;11.66;52.39
4767;BME280;2397;53.576;9.746;2023-05-09T03:15:19;101856.16;;;11.65;52.82
4767;BME280;2397;53.576;9.746;2023-05-09T03:17:46;101854.84;;;11.59;53.16
4767;BME280;2397;53.576;9.746;2023-05-09T03:20:14;101845.84;;;11.62;52.72
4767;BME280;2397;53.576;9.746;2023-05-09T03:22:41;101848.47;;;11.62;52.79
4767;BME280;2397;53.576;9.746;2023-05-09T03:25:09;101836.88;;;11.53;53.13
4767;BME280;2397;53.576;9.746;2023-05-09T03:27:37;101832.22;;;11.46;52.85
4767;BME280;2397;53.576;9.746;2023-05-09T03:30:07;101834.44;;;11.41;53.49
4767;BME280;2397;53.576;9.746;2023-05-09T03:32:34;101830.25;;;11.38;53.20
4767;BME280;2397;53.576;9.746;2023-05-09T03:35:01;101842.19;;;11.33;53.47
4767;BME280;2397;53.576;9.746;2023-05-09T03:37:27;101846.84;;;11.29;53.58
4767;BME280;2397;53.576;9.746;2023-05-09T03:39:54;101844.34;;;11.28;54.23
4767;BME280;2397;53.576;9.746;2023-05-09T03:42:21;101841.50;;;11.20;54.55
4767;BME280;2397;53.576;9.746;2023-05-09T03:44:49;101840.28;;;11.24;54.68
4767;BME280;2397;53.576;9.746;2023-05-09T03:47:19;101837.38;;;11.27;54.85
4767;BME280;2397;53.576;9.746;2023-05-09T03:49:46;101839.84;;;11.19;55.14
4767;BME280;2397;53.576;9.746;2023-05-09T03:52:16;101838.16;;;11.18;55.78
4767;BME280;2397;53.576;9.746;2023-05-09T03:54:43;101846.78;;;11.20;54.76
4767;BME280;2397;53.576;9.746;2023-05-09T03:57:10;101841.50;;;11.20;56.01
4767;BME280;2397;53.576;9.746;2023-05-09T03:59:36;101839.72;;;11.20;55.98
4767;BME280;2397;53.576;9.746;2023-05-09T04:02:03;101844.16;;;11.20;56.05
4767;BME280;2397;53.576;9.746;2023-05-09T04:04:30;101846.06;;;11.18;56.22
4767;BME280;2397;53.576;9.746;2023-05-09T04:06:57;101840.66;;;11.19;56.35
4767;BME280;2397;53.576;9.746;2023-05-09T04:09:24;101842.00;;;11.14;55.70
4767;BME280;2397;53.576;9.746;2023-05-09T04:11:53;101830.03;;;11.10;56.41
4767;BME280;2397;53.576;9.746;2023-05-09T04:14:19;101833.13;;;11.15;55.69
4767;BME280;2397;53.576;9.746;2023-05-09T04:16:46;101830.03;;;11.10;56.72
4767;BME280;2397;53.576;9.746;2023-05-09T04:19:13;101831.50;;;11.03;56.55
4767;BME280;2397;53.576;9.746;2023-05-09T04:21:39;101830.81;;;11.01;56.99
4767;BME280;2397;53.576;9.746;2023-05-09T04:24:06;101824.19;;;11.06;56.56
4767;BME280;2397;53.576;9.746;2023-05-09T04:26:39;101815.22;;;10.98;56.77
4767;BME280;2397;53.576;9.746;2023-05-09T04:29:09;101806.06;;;11.02;56.00
4767;BME280;2397;53.576;9.746;2023-05-09T04:31:35;101810.16;;;10.95;56.35
4767;BME280;2397;53.576;9.746;2023-05-09T04:34:03;101807.09;;;10.90;56.30
4767;BME280;2397;53.576;9.746;2023-05-09T04:36:32;101805.97;;;10.92;56.39
4767;BME280;2397;53.576;9.746;2023-05-09T04:38:59;101804.19;;;10.93;56.18
4767;BME280;2397;53.576;9.746;2023-05-09T04:41:27;101804.06;;;10.94;56.50
4767;BME280;2397;53.576;9.746;2023-05-09T04:43:54;101813.78;;;10.94;56.94
4767;BME280;2397;53.576;9.746;2023-05-09T04:46:23;101825.53;;;11.01;56.73
4767;BME280;2397;53.576;9.746;2023-05-09T04:48:51;101829.13;;;11.00;56.29
4767;BME280;2397;53.576;9.746;2023-05-09T04:51:19;101826.50;;;11.00;56.93
4767;BME280;2397;53.576;9.746;2023-05-09T04:53:45;101827.84;;;10.94;56.84
4767;BME280;2397;53.576;9.746;2023-05-09T04:56:13;101831.25;;;11.06;57.10
4767;BME280;2397;53.576;9.746;2023-05-09T04:58:41;101832.84;;;11.18;57.38
4767;BME280;2397;53.576;9.746;2023-05-09T05:01:09;101825.91;;;11.17;56.69
4767;BME280;2397;53.576;9.746;2023-05-09T05:03:36;101827.63;;;11.07;57.69
4767;BME280;2397;53.576;9.746;2023-05-09T05:06:04;101833.38;;;11.12;57.57
4767;BME280;2397;53.576;9.746;2023-05-09T05:08:31;101829.53;;;11.16;58.39
4767;BME280;2397;53.576;9.746;2023-05-09T05:10:58;101822.75;;;11.23;57.03
4767;BME280;2397;53.576;9.746;2023-05-09T05:13:24;101814.03;;;11.32;57.04
4767;BME280;2397;53.576;9.746;2023-05-09T05:15:54;101811.41;;;11.32;56.28
4767;BME280;2397;53.576;9.746;2023-05-09T05:18:21;101803.22;;;11.35;57.00
4767;BME280;2397;53.576;9.746;2023-05-09T05:20:48;101806.03;;;11.43;56.90
4767;BME280;2397;53.576;9.746;2023-05-09T05:23:15;101794.84;;;11.50;56.91
4767;BME280;2397;53.576;9.746;2023-05-09T05:25:42;101799.88;;;11.53;56.56
4767;BME280;2397;53.576;9.746;2023-05-09T05:28:08;101796.38;;;11.53;56.46
4767;BME280;2397;53.576;9.746;2023-05-09T05:30:36;101789.72;;;11.58;57.36
4767;BME280;2397;53.576;9.746;2023-05-09T05:33:02;101799.81;;;11.64;56.38
4767;BME280;2397;53.576;9.746;2023-05-09T05:35:29;101799.09;;;11.62;56.68
4767;BME280;2397;53.576;9.746;2023-05-09T05:37:56;101794.22;;;11.67;56.05
4767;BME280;2397;53.576;9.746;2023-05-09T05:40:24;101795.50;;;11.73;56.13
4767;BME280;2397;53.576;9.746;2023-05-09T05:42:52;101791.09;;;11.83;55.79
4767;BME280;2397;53.576;9.746;2023-05-09T05:45:19;101785.69;;;11.84;56.37
4767;BME280;2397;53.576;9.746;2023-05-09T05:47:50;101799.19;;;11.91;57.05
4767;BME280;2397;53.576;9.746;2023-05-09T05:50:17;101800.22;;;11.99;56.64
4767;BME280;2397;53.576;9.746;2023-05-09T05:52:44;101793.94;;;12.00;55.97
4767;BME280;2397;53.576;9.746;2023-05-09T05:55:13;101798.44;;;12.09;56.03
4767;BME280;2397;53.576;9.746;2023-05-09T05:57:40;101782.31;;;12.12;56.23
4767;BME280;2397;53.576;9.746;2023-05-09T06:00:10;101785.78;;;12.22;56.84
4767;BME280;2397;53.576;9.746;2023-05-09T06:02:44;101775.78;;;12.26;55.71
4767;BME280;2397;53.576;9.746;2023-05-09T06:05:20;101767.84;;;12.26;55.71
4767;BME280;2397;53.576;9.746;2023-05-09T06:07:47;101755.41;;;12.26;56.06
4767;BME280;2397;53.576;9.746;2023-05-09T06:10:13;101752.63;;;12.28;56.18
4767;BME280;2397;53.576;9.746;2023-05-09T06:12:43;101746.66;;;12.35;54.81
4767;BME280;2397;53.576;9.746;2023-05-09T06:15:10;101747.91;;;12.31;54.89
4767;BME280;2397;53.576;9.746;2023-05-09T06:17:40;101753.50;;;12.38;55.35
4767;BME280;2397;53.576;9.746;2023-05-09T06:20:07;101757.94;;;12.47;55.09
4767;BME280;2397;53.576;9.746;2023-05-09T06:22:34;101751.25;;;12.52;54.80
4767;BME280;2397;53.576;9.746;2023-05-09T06:25:01;101749.88;;;12.58;55.39
4767;BME280;2397;53.576;9.746;2023-05-09T06:27:27;101740.81;;;12.70;55.84
4767;BME280;2397;53.576;9.746;2023-05-09T06:29:54;101740.38;;;12.74;54.47
4767;BME280;2397;53.576;9.746;2023-05-09T06:32:21;101731.34;;;12.77;54.88
4767;BME280;2397;53.576;9.746;2023-05-09T06:34:47;101732.16;;;12.87;54.67
4767;BME280;2397;53.576;9.746;2023-05-09T06:37:14;101731.75;;;13.01;54.18
4767;BME280;2397;53.576;9.746;2023-05-09T06:39:40;101743.56;;;13.16;55.27
4767;BME280;2397;53.576;9.746;2023-05-09T06:42:07;101731.31;;;13.15;53.24
4767;BME280;2397;53.576;9.746;2023-05-09T06:44:37;101737.47;;;13.06;52.94
4767;BME280;2397;53.576;9.746;2023-05-09T06:47:03;101728.38;;;13.18;53.61
4767;BME280;2397;53.576;9.746;2023-05-09T06:49:30;101728.84;;;13.40;54.17
4767;BME280;2397;53.576;9.746;2023-05-09T06:51:57;101720.16;;;13.48;53.41
4767;BME280;2397;53.576;9.746;2023-05-09T06:54:23;101724.00;;;13.63;54.46
4767;BME280;2397;53.576;9.746;2023-05-09T06:56:49;101727.84;;;13.78;52.24
4767;BME280;2397;53.576;9.746;2023-05-09T06:59:16;101718.22;;;13.77;52.66
4767;BME280;2397;53.576;9.746;2023-05-09T07:01:43;101716.66;;;13.84;52.24
4767;BME280;2397;53.576;9.746;2023-05-09T07:04:09;101718.78;;;13.98;52.50
4767;BME280;2397;53.576;9.746;2023-05-09T07:06:36;101713.09;;;14.11;52.62
4767;BME280;2397;53.576;9.746;2023-05-09T07:09:03;101690.63;;;14.32;52.56
4767;BME280;2397;53.576;9.746;2023-05-09T07:11:35;101694.28;;;14.49;51.37
4767;BME280;2397;53.576;9.746;2023-05-09T07:14:03;101695.19;;;14.57;51.81
4767;BME280;2397;53.576;9.746;2023-05-09T07:16:29;101694.09;;;14.68;50.97
4767;BME280;2397;53.576;9.746;2023-05-09T07:18:56;101695.81;;;14.77;50.92
4767;BME280;2397;53.576;9.746;2023-05-09T07:21:22;101690.91;;;14.64;50.42
4767;BME280;2397;53.576;9.746;2023-05-09T07:23:49;101691.28;;;14.69;51.09
4767;BME280;2397;53.576;9.746;2023-05-09T07:26:15;101679.72;;;14.78;50.34
4767;BME280;2397;53.576;9.746;2023-05-09T07:28:42;101667.06;;;14.98;50.87
4767;BME280;2397;53.576;9.746;2023-05-09T07:31:08;101672.69;;;15.20;49.96
4767;BME280;2397;53.576;9.746;2023-05-09T07:33:35;101665.69;;;15.19;49.24
4767;BME280;2397;53.576;9.746;2023-05-09T07:36:01;101668.91;;;15.31;49.99
4767;BME280;2397;53.576;9.746;2023-05-09T07:38:28;101666.34;;;15.47;48.96
4767;BME280;2397;53.576;9.746;2023-05-09T07:40:54;101655.84;;;15.45;49.17
4767;BME280;2397;53.576;9.746;2023-05-09T07:43:21;101653.53;;;15.42;49.31
4767;BME280;2397;53.576;9.746;2023-05-09T07:45:47;101658.22;;;15.48;49.45
4767;BME280;2397;53.576;9.746;2023-05-09T07:48:14;101650.22;;;15.48;49.58
4767;BME280;2397;53.576;9.746;2023-05-09T07:50:41;101644.13;;;15.56;49.85
4767;BME280;2397;53.576;9.746;2023-05-09T07:53:07;101644.97;;;15.64;51.03
4767;BME280;2397;53.576;9.746;2023-05-09T07:55:34;101631.00;;;15.70;49.66
4767;BME280;2397;53.576;9.746;2023-05-09T07:58:00;101630.53;;;15.83;50.23
4767;BME280;2397;53.576;9.746;2023-05-09T08:00:27;101631.09;;;16.10;49.24
4767;BME280;2397;53.576;9.746;2023-05-09T08:02:53;101634.91;;;16.16;49.07
4767;BME280;2397;53.576;9.746;2023-05-09T08:05:20;101625.59;;;16.20;47.65
4767;BME280;2397;53.576;9.746;2023-05-09T08:07:47;101637.75;;;16.14;48.61
4767;BME280;2397;53.576;9.746;2023-05-09T08:10:13;101632.25;;;16.24;50.96
4767;BME280;2397;53.576;9.746;2023-05-09T08:12:40;101621.94;;;16.37;48.71
4767;BME280;2397;53.576;9.746;2023-05-09T08:15:07;101618.47;;;16.44;48.29
4767;BME280;2397;53.576;9.746;2023-05-09T08:17:33;101615.97;;;16.59;48.28
4767;BME280;2397;53.576;9.746;2023-05-09T08:20:00;101617.41;;;16.77;47.67
4767;BME280;2397;53.576;9.746;2023-05-09T08:22:26;101608.06;;;16.89;47.31
4767;BME280;2397;53.576;9.746;2023-05-09T08:24:53;101602.56;;;16.91;47.67
4767;BME280;2397;53.576;9.746;2023-05-09T08:27:19;101615.31;;;17.20;47.57
4767;BME280;2397;53.576;9.746;2023-05-09T08:29:46;101607.25;;;17.36;46.40
4767;BME280;2397;53.576;9.746;2023-05-09T08:32:12;101604.56;;;17.44;47.18
4767;BME280;2397;53.576;9.746;2023-05-09T08:34:39;101604.13;;;17.63;46.43
4767;BME280;2397;53.576;9.746;2023-05-09T08:37:06;101599.84;;;17.54;47.42
4767;BME280;2397;53.576;9.746;2023-05-09T08:39:32;101585.25;;;17.42;46.61
4767;BME280;2397;53.576;9.746;2023-05-09T08:42:01;101594.56;;;17.30;46.62
4767;BME280;2397;53.576;9.746;2023-05-09T08:44:29;101589.91;;;17.32;47.58
4767;BME280;2397;53.576;9.746;2023-05-09T08:46:59;101587.53;;;17.37;46.72
4767;BME280;2397;53.576;9.746;2023-05-09T08:49:26;101585.81;;;17.52;47.15
4767;BME280;2397;53.576;9.746;2023-05-09T08:51:55;101581.41;;;17.89;46.41
4767;BME280;2397;53.576;9.746;2023-05-09T08:54:22;101578.38;;;18.15;45.90
4767;BME280;2397;53.576;9.746;2023-05-09T08:56:49;101570.81;;;18.41;46.28
4767;BME280;2397;53.576;9.746;2023-05-09T08:59:17;101563.25;;;18.67;44.94
4767;BME280;2397;53.576;9.746;2023-05-09T09:01:44;101561.47;;;18.74;44.43
4767;BME280;2397;53.576;9.746;2023-05-09T09:04:11;101559.44;;;18.76;44.23
4767;BME280;2397;53.576;9.746;2023-05-09T09:06:39;101561.38;;;18.96;44.76
4767;BME280;2397;53.576;9.746;2023-05-09T09:09:06;101548.75;;;19.05;44.11
4767;BME280;2397;53.576;9.746;2023-05-09T09:11:36;101552.72;;;18.94;44.17
4767;BME280;2397;53.576;9.746;2023-05-09T09:14:12;101547.31;;;19.23;43.55
4767;BME280;2397;53.576;9.746;2023-05-09T09:16:43;101545.94;;;19.42;42.78
4767;BME280;2397;53.576;9.746;2023-05-09T09:19:11;101547.81;;;19.27;44.05
4767;BME280;2397;53.576;9.746;2023-05-09T09:21:43;101540.09;;;19.38;43.08
4767;BME280;2397;53.576;9.746;2023-05-09T09:24:20;101538.69;;;19.57;43.16
4767;BME280;2397;53.576;9.746;2023-05-09T09:26:49;101535.16;;;19.56;43.00
4767;BME280;2397;53.576;9.746;2023-05-09T09:29:17;101541.44;;;19.84;42.78
4767;BME280;2397;53.576;9.746;2023-05-09T09:31:45;101527.81;;;19.79;42.23
4767;BME280;2397;53.576;9.746;2023-05-09T09:34:19;101515.34;;;19.93;41.19
4767;BME280;2397;53.576;9.746;2023-05-09T09:36:46;101521.59;;;20.00;42.80
4767;BME280;2397;53.576;9.746;2023-05-09T09:39:13;101524.59;;;20.12;42.72
4767;BME280;2397;53.576;9.746;2023-05-09T09:41:40;101517.47;;;20.25;41.64
4767;BME280;2397;53.576;9.746;2023-05-09T09:44:08;101503.00;;;20.20;42.01
4767;BME280;2397;53.576;9.746;2023-05-09T09:46:46;101500.09;;;20.42;40.66
4767;BME280;2397;53.576;9.746;2023-05-09T09:49:14;101497.25;;;20.50;39.45
4767;BME280;2397;53.576;9.746;2023-05-09T09:51:41;101499.56;;;20.60;39.60
4767;BME280;2397;53.576;9.746;2023-05-09T09:54:09;101491.31;;;20.61;39.84
4767;BME280;2397;53.576;9.746;2023-05-09T09:56:44;101493.84;;;20.69;38.69
4767;BME280;2397;53.576;9.746;2023-05-09T09:59:19;101486.44;;;20.71;38.64
4767;BME280;2397;53.576;9.746;2023-05-09T10:02:04;101495.41;;;20.91;39.65
4767;BME280;2397;53.576;9.746;2023-05-09T10:04:37;101475.94;;;21.17;39.73
4767;BME280;2397;53.576;9.746;2023-05-09T10:07:07;101472.69;;;21.47;38.59
4767;BME280;2397;53.576;9.746;2023-05-09T10:09:40;101469.63;;;21.63;38.35
4767;BME280;2397;53.576;9.746;2023-05-09T10:12:07;101466.13;;;21.69;39.08
4767;BME280;2397;53.576;9.746;2023-05-09T10:14:35;101451.47;;;21.85;38.11
4767;BME280;2397;53.576;9.746;2023-05-09T10:17:03;101452.28;;;21.85;36.14
4767;BME280;2397;53.576;9.746;2023-05-09T10:19:30;101445.47;;;21.89;36.00
4767;BME280;2397;53.576;9.746;2023-05-09T10:22:01;101443.00;;;21.81;35.61
4767;BME280;2397;53.576;9.746;2023-05-09T10:24:42;101442.75;;;22.02;38.27
4767;BME280;2397;53.576;9.746;2023-05-09T10:27:11;101441.91;;;22.15;35.81
4767;BME280;2397;53.576;9.746;2023-05-09T10:29:48;101431.41;;;22.00;34.99
4767;BME280;2397;53.576;9.746;2023-05-09T10:32:22;101427.03;;;22.25;34.83
4767;BME280;2397;53.576;9.746;2023-05-09T10:34:53;101422.41;;;22.45;35.18
4767;BME280;2397;53.576;9.746;2023-05-09T10:37:23;101418.44;;;22.67;34.89
4767;BME280;2397;53.576;9.746;2023-05-09T10:39:50;101405.78;;;22.74;33.72
4767;BME280;2397;53.576;9.746;2023-05-09T10:42:21;101412.53;;;22.83;34.83
4767;BME280;2397;53.576;9.746;2023-05-09T10:44:50;101399.88;;;22.90;32.84
4767;BME280;2397;53.576;9.746;2023-05-09T10:47:17;101384.84;;;23.14;34.26
4767;BME280;2397;53.576;9.746;2023-05-09T10:49:44;101380.88;;;23.23;32.34
4767;BME280;2397;53.576;9.746;2023-05-09T10:52:11;101376.97;;;23.13;33.08
4767;BME280;2397;53.576;9.746;2023-05-09T10:54:38;101372.00;;;23.16;32.65
4767;BME280;2397;53.576;9.746;2023-05-09T10:57:06;101366.56;;;22.91;32.23
4767;BME280;2397;53.576;9.746;2023-05-09T10:59:41;101375.38;;;23.05;34.95
4767;BME280;2397;53.576;9.746;2023-05-09T11:02:12;101366.59;;;23.23;32.75
4767;BME280;2397;53.576;9.746;2023-05-09T11:04:39;101356.06;;;23.15;34.22
4767;BME280;2397;53.576;9.746;2023-05-09T11:07:24;101356.44;;;23.18;33.82
4767;BME280;2397;53.576;9.746;2023-05-09T11:10:06;101334.81;;;23.31;34.05
4767;BME280;2397;53.576;9.746;2023-05-09T11:12:33;101335.09;;;23.48;33.64
4767;BME280;2397;53.576;9.746;2023-05-09T11:15:04;101339.94;;;23.82;33.47
4767;BME280;2397;53.576;9.746;2023-05-09T11:17:36;101326.41;;;23.88;31.12
4767;BME280;2397;53.576;9.746;2023-05-09T11:20:04;101331.09;;;23.75;31.37
4767;BME280;2397;53.576;9.746;2023-05-09T11:22:42;101317.69;;;23.93;32.04
4767;BME280;2397;53.576;9.746;2023-05-09T11:25:13;101298.63;;;24.24;31.99
4767;BME280;2397;53.576;9.746;2023-05-09T11:27:43;101304.34;;;24.16;31.91
4767;BME280;2397;53.576;9.746;2023-05-09T11:30:12;101295.34;;;24.22;30.09
4767;BME280;2397;53.576;9.746;2023-05-09T11:32:54;101300.47;;;23.69;31.55
4767;BME280;2397;53.576;9.746;2023-05-09T11:35:22;101298.19;;;23.91;31.14
4767;BME280;2397;53.576;9.746;2023-05-09T11:38:02;101293.00;;;23.71;30.07
4767;BME280;2397;53.576;9.746;2023-05-09T11:40:30;101290.84;;;24.16;32.12
4767;BME280;2397;53.576;9.746;2023-05-09T11:42:58;101277.81;;;24.60;31.02
4767;BME280;2397;53.576;9.746;2023-05-09T11:45:30;101281.41;;;24.72;31.47
4767;BME280;2397;53.576;9.746;2023-05-09T11:47:57;101267.00;;;24.60;28.91
4767;BME280;2397;53.576;9.746;2023-05-09T11:50:24;101274.81;;;24.68;29.71
4767;BME280;2397;53.576;9.746;2023-05-09T11:52:52;101266.63;;;24.57;29.78
4767;BME280;2397;53.576;9.746;2023-05-09T11:55:19;101259.97;;;24.59;29.05
4767;BME280;2397;53.576;9.746;2023-05-09T11:57:52;101262.09;;;24.87;29.47
4767;BME280;2397;53.576;9.746;2023-05-09T12:00:21;101261.50;;;25.08;29.50
4767;BME280;2397;53.576;9.746;2023-05-09T12:02:48;101265.81;;;24.86;29.01
4767;BME280;2397;53.576;9.746;2023-05-09T12:05:19;101266.31;;;24.83;30.67
4767;BME280;2397;53.576;9.746;2023-05-09T12:07:46;101259.16;;;24.88;29.80
4767;BME280;2397;53.576;9.746;2023-05-09T12:10:15;101257.91;;;24.43;30.81
4767;BME280;2397;53.576;9.746;2023-05-09T12:12:46;101245.69;;;24.41;32.99
4767;BME280;2397;53.576;9.746;2023-05-09T12:15:14;101244.78;;;24.47;31.13
4767;BME280;2397;53.576;9.746;2023-05-09T12:17:42;101248.06;;;24.49;29.43
4767;BME280;2397;53.576;9.746;2023-05-09T12:20:10;101245.69;;;24.41;31.41
4767;BME280;2397;53.576;9.746;2023-05-09T12:22:37;101242.22;;;24.52;30.73
4767;BME280;2397;53.576;9.746;2023-05-09T12:25:05;101231.38;;;24.70;31.06
4767;BME280;2397;53.576;9.746;2023-05-09T12:27:37;101243.72;;;24.66;29.95
4767;BME280;2397;53.576;9.746;2023-05-09T12:30:04;101235.63;;;24.48;30.40
4767;BME280;2397;53.576;9.746;2023-05-09T12:32:34;101240.25;;;24.59;30.16
4767;BME280;2397;53.576;9.746;2023-05-09T12:35:02;101234.72;;;24.95;29.82
4767;BME280;2397;53.576;9.746;2023-05-09T12:37:30;101236.53;;;25.24;29.42
4767;BME280;2397;53.576;9.746;2023-05-09T12:40:02;101238.50;;;25.28;29.55
4767;BME280;2397;53.576;9.746;2023-05-09T12:42:34;101234.50;;;25.08;30.84
4767;BME280;2397;53.576;9.746;2023-05-09T12:45:05;101216.97;;;24.76;29.45
4767;BME280;2397;53.576;9.746;2023-05-09T12:47:33;101219.16;;;25.20;30.01
4767;BME280;2397;53.576;9.746;2023-05-09T12:50:01;101222.66;;;25.20;28.08
4767;BME280;2397;53.576;9.746;2023-05-09T12:52:38;101219.72;;;25.22;28.27
4767;BME280;2397;53.576;9.746;2023-05-09T12:55:24;101214.06;;;25.12;28.38
4767;BME280;2397;53.576;9.746;2023-05-09T12:58:02;101208.22;;;25.26;28.19
4767;BME280;2397;53.576;9.746;2023-05-09T13:00:41;101212.88;;;25.65;30.29
4767;BME280;2397;53.576;9.746;2023-05-09T13:03:25;101210.91;;;25.61;28.05
4767;BME280;2397;53.576;9.746;2023-05-09T13:05:54;101207.09;;;25.85;28.04
4767;BME280;2397;53.576;9.746;2023-05-09T13:08:21;101211.19;;;25.99;27.87
4767;BME280;2397;53.576;9.746;2023-05-09T13:10:48;101201.19;;;25.88;27.51
4767;BME280;2397;53.576;9.746;2023-05-09T13:13:18;101190.84;;;25.85;26.41
4767;BME280;2397;53.576;9.746;2023-05-09T13:15:45;101190.09;;;26.13;28.00
4767;BME280;2397;53.576;9.746;2023-05-09T13:18:12;101189.41;;;26.06;29.07
4767;BME280;2397;53.576;9.746;2023-05-09T13:20:38;101180.31;;;25.72;27.29
4767;BME280;2397;53.576;9.746;2023-05-09T13:23:05;101188.84;;;25.80;28.72
4767;BME280;2397;53.576;9.746;2023-05-09T13:25:32;101182.63;;;26.20;27.92
4767;BME280;2397;53.576;9.746;2023-05-09T13:27:58;101178.91;;;26.37;28.13
4767;BME280;2397;53.576;9.746;2023-05-09T13:30:25;101183.22;;;26.22;28.19